sensor_id;sensor_type;location;lat;lon;timestamp;temperature;humidity
65826;DHT22;52586;-43.152;172.732;2023-06-10T00:01:38;12.40;55.50
65826;DHT22;52586;-43.152;172.732;2023-06-10T00:04:09;12.40;55.60
65826;DHT22;52586;-43.152;172.732;2023-06-10T00:06:39;12.40;56.10
65826;DHT22;52586;-43.152;172.732;2023-06-10T00:09:11;12.40;55.60
65826;DHT22;52586;-43.152;172.732;2023-06-10T00:11:42;12.40;55.60
65826;DHT22;52586;-43.152;172.732;2023-06-10T00:14:13;12.40;55.60
65826;DHT22;52586;-43.152;172.732;2023-06-10T00:16:46;12.50;55.60
65826;DHT22;52586;-43.152;172.732;2023-06-10T00:19:17;12.50;55.70
65826;DHT22;52586;-43.152;172.732;2023-06-10T00:21:47;12.50;55.70
65826;DHT22;52586;-43.152;172.732;2023-06-10T00:24:19;12.50;55.70
65826;DHT22;52586;-43.152;172.732;2023-06-10T00:26:50;12.50;55.80
65826;DHT22;52586;-43.152;172.732;2023-06-10T00:29:21;12.50;55.80
65826;DHT22;52586;-43.152;172.732;2023-06-10T00:31:53;12.50;55.70
65826;DHT22;52586;-43.152;172.732;2023-06-10T00:34:25;12.60;55.80
65826;DHT22;52586;-43.152;172.732;2023-06-10T00:36:55;12.60;55.80
65826;DHT22;52586;-43.152;172.732;2023-06-10T00:39:26;12.60;55.80
65826;DHT22;52586;-43.152;172.732;2023-06-10T00:41:57;12.60;55.80
65826;DHT22;52586;-43.152;172.732;2023-06-10T00:44:27;12.60;55.80
65826;DHT22;52586;-43.152;172.732;2023-06-10T00:47:00;12.60;55.80
65826;DHT22;52586;-43.152;172.732;2023-06-10T00:49:31;12.60;55.80
65826;DHT22;52586;-43.152;172.732;2023-06-10T00:52:02;12.60;55.80
65826;DHT22;52586;-43.152;172.732;2023-06-10T00:54:35;12.70;55.90
65826;DHT22;52586;-43.152;172.732;2023-06-10T00:57:06;12.70;55.90
65826;DHT22;52586;-43.152;172.732;2023-06-10T00:59:37;12.70;56.00
65826;DHT22;52586;-43.152;172.732;2023-06-10T01:02:10;12.70;56.00
65826;DHT22;52586;-43.152;172.732;2023-06-10T01:04:41;12.70;56.00
65826;DHT22;52586;-43.152;172.732;2023-06-10T01:07:17;12.70;56.00
65826;DHT22;52586;-43.152;172.732;2023-06-10T01:09:55;12.70;56.00
65826;DHT22;52586;-43.152;172.732;2023-06-10T01:12:33;12.80;56.00
65826;DHT22;52586;-43.152;172.732;2023-06-10T01:15:05;12.80;56.00
65826;DHT22;52586;-43.152;172.732;2023-06-10T01:17:52;12.80;56.00
65826;DHT22;52586;-43.152;172.732;2023-06-10T01:20:23;12.80;56.00
65826;DHT22;52586;-43.152;172.732;2023-06-10T01:22:57;12.90;56.00
65826;DHT22;52586;-43.152;172.732;2023-06-10T01:25:28;12.90;56.10
65826;DHT22;52586;-43.152;172.732;2023-06-10T01:28:04;12.90;56.10
65826;DHT22;52586;-43.152;172.732;2023-06-10T01:30:41;12.90;56.10
65826;DHT22;52586;-43.152;172.732;2023-06-10T01:33:18;12.90;56.10
65826;DHT22;52586;-43.152;172.732;2023-06-10T01:35:52;12.90;56.70
65826;DHT22;52586;-43.152;172.732;2023-06-10T01:38:27;13.00;56.20
65826;DHT22;52586;-43.152;172.732;2023-06-10T01:40:59;13.00;56.30
65826;DHT22;52586;-43.152;172.732;2023-06-10T01:43:33;13.00;56.20
65826;DHT22;52586;-43.152;172.732;2023-06-10T01:46:04;13.00;56.20
65826;DHT22;52586;-43.152;172.732;2023-06-10T01:48:35;13.00;56.20
65826;DHT22;52586;-43.152;172.732;2023-06-10T01:51:05;13.10;56.30
65826;DHT22;52586;-43.152;172.732;2023-06-10T01:53:38;13.10;56.20
65826;DHT22;52586;-43.152;172.732;2023-06-10T01:56:09;13.10;56.20
65826;DHT22;52586;-43.152;172.732;2023-06-10T01:58:44;13.10;56.20
65826;DHT22;52586;-43.152;172.732;2023-06-10T02:01:15;13.20;56.20
65826;DHT22;52586;-43.152;172.732;2023-06-10T02:03:46;13.20;56.20
65826;DHT22;52586;-43.152;172.732;2023-06-10T02:06:16;13.30;56.20
65826;DHT22;52586;-43.152;172.732;2023-06-10T02:08:49;13.30;56.20
65826;DHT22;52586;-43.152;172.732;2023-06-10T02:11:19;13.30;56.20
65826;DHT22;52586;-43.152;172.732;2023-06-10T02:13:50;13.30;56.20
65826;DHT22;52586;-43.152;172.732;2023-06-10T02:16:21;13.40;56.20
65826;DHT22;52586;-43.152;172.732;2023-06-10T03:18:28;14.00;56.40
65826;DHT22;52586;-43.152;172.732;2023-06-10T03:21:00;14.10;56.40
65826;DHT22;52586;-43.152;172.732;2023-06-10T03:23:31;14.10;56.40
65826;DHT22;52586;-43.152;172.732;2023-06-10T03:26:02;14.10;56.30
65826;DHT22;52586;-43.152;172.732;2023-06-10T03:28:36;14.20;56.30
65826;DHT22;52586;-43.152;172.732;2023-06-10T03:31:07;14.20;56.30
65826;DHT22;52586;-43.152;172.732;2023-06-10T03:33:39;14.20;56.30
65826;DHT22;52586;-43.152;172.732;2023-06-10T03:36:10;14.30;56.30
65826;DHT22;52586;-43.152;172.732;2023-06-10T03:38:41;14.30;56.30
65826;DHT22;52586;-43.152;172.732;2023-06-10T03:41:11;14.30;56.30
65826;DHT22;52586;-43.152;172.732;2023-06-10T03:43:42;14.40;56.40
65826;DHT22;52586;-43.152;172.732;2023-06-10T03:46:13;14.40;56.40
65826;DHT22;52586;-43.152;172.732;2023-06-10T03:48:47;14.40;56.30
65826;DHT22;52586;-43.152;172.732;2023-06-10T03:51:17;14.50;56.30
65826;DHT22;52586;-43.152;172.732;2023-06-10T03:53:48;14.50;56.40
65826;DHT22;52586;-43.152;172.732;2023-06-10T03:56:19;14.50;56.30
65826;DHT22;52586;-43.152;172.732;2023-06-10T03:58:49;14.60;56.30
65826;DHT22;52586;-43.152;172.732;2023-06-10T04:01:20;14.60;56.30
65826;DHT22;52586;-43.152;172.732;2023-06-10T04:03:53;14.60;56.20
65826;DHT22;52586;-43.152;172.732;2023-06-10T04:06:23;14.70;56.20
65826;DHT22;52586;-43.152;172.732;2023-06-10T04:08:56;14.70;56.20
65826;DHT22;52586;-43.152;172.732;2023-06-10T04:11:27;14.70;56.10
65826;DHT22;52586;-43.152;172.732;2023-06-10T04:13:58;14.80;56.10
65826;DHT22;52586;-43.152;172.732;2023-06-10T04:16:28;14.80;56.10
65826;DHT22;52586;-43.152;172.732;2023-06-10T04:19:01;14.80;56.10
65826;DHT22;52586;-43.152;172.732;2023-06-10T04:21:31;14.90;56.10
65826;DHT22;52586;-43.152;172.732;2023-06-10T04:24:04;14.90;56.10
65826;DHT22;52586;-43.152;172.732;2023-06-10T04:26:35;14.90;56.00
65826;DHT22;52586;-43.152;172.732;2023-06-10T04:29:05;14.90;56.00
65826;DHT22;52586;-43.152;172.732;2023-06-10T04:31:36;15.00;56.80
65826;DHT22;52586;-43.152;172.732;2023-06-10T04:34:08;15.10;56.90
65826;DHT22;52586;-43.152;172.732;2023-06-10T04:36:39;15.10;56.50
65826;DHT22;52586;-43.152;172.732;2023-06-10T04:39:10;15.10;56.20
65826;DHT22;52586;-43.152;172.732;2023-06-10T04:41:41;15.10;56.10
65826;DHT22;52586;-43.152;172.732;2023-06-10T04:44:11;15.00;56.00
65826;DHT22;52586;-43.152;172.732;2023-06-10T04:46:42;14.90;56.00
65826;DHT22;52586;-43.152;172.732;2023-06-10T04:49:15;14.90;56.00
65826;DHT22;52586;-43.152;172.732;2023-06-10T04:51:45;14.90;55.80
65826;DHT22;52586;-43.152;172.732;2023-06-10T04:54:16;14.80;55.60
65826;DHT22;52586;-43.152;172.732;2023-06-10T04:56:47;14.80;55.40
65826;DHT22;52586;-43.152;172.732;2023-06-10T04:59:17;14.70;55.10
65826;DHT22;52586;-43.152;172.732;2023-06-10T05:01:48;14.70;54.90
65826;DHT22;52586;-43.152;172.732;2023-06-10T05:04:20;14.60;54.80
65826;DHT22;52586;-43.152;172.732;2023-06-10T05:06:51;14.60;54.80
65826;DHT22;52586;-43.152;172.732;2023-06-10T05:09:22;14.50;54.60
65826;DHT22;52586;-43.152;172.732;2023-06-10T05:11:53;14.50;54.50
65826;DHT22;52586;-43.152;172.732;2023-06-10T05:14:24;14.50;54.40
65826;DHT22;52586;-43.152;172.732;2023-06-10T05:16:55;14.40;54.30
65826;DHT22;52586;-43.152;172.732;2023-06-10T05:19:27;14.40;54.10
65826;DHT22;52586;-43.152;172.732;2023-06-10T05:21:58;14.30;53.80
65826;DHT22;52586;-43.152;172.732;2023-06-10T05:24:29;14.20;53.70
65826;DHT22;52586;-43.152;172.732;2023-06-10T05:26:59;14.10;53.60
65826;DHT22;52586;-43.152;172.732;2023-06-10T05:29:30;14.10;53.70
65826;DHT22;52586;-43.152;172.732;2023-06-10T05:32:01;14.00;53.60
65826;DHT22;52586;-43.152;172.732;2023-06-10T05:34:34;13.90;53.50
65826;DHT22;52586;-43.152;172.732;2023-06-10T05:37:05;13.80;53.40
65826;DHT22;52586;-43.152;172.732;2023-06-10T05:39:37;13.70;53.40
65826;DHT22;52586;-43.152;172.732;2023-06-10T05:42:08;13.70;53.50
65826;DHT22;52586;-43.152;172.732;2023-06-10T05:44:39;13.60;53.70
65826;DHT22;52586;-43.152;172.732;2023-06-10T05:47:09;13.50;53.70
65826;DHT22;52586;-43.152;172.732;2023-06-10T05:49:42;13.50;53.80
65826;DHT22;52586;-43.152;172.732;2023-06-10T05:52:13;13.40;53.70
65826;DHT22;52586;-43.152;172.732;2023-06-10T05:54:44;13.30;53.60
65826;DHT22;52586;-43.152;172.732;2023-06-10T05:57:14;13.30;53.60
65826;DHT22;52586;-43.152;172.732;2023-06-10T05:59:45;13.20;53.60
65826;DHT22;52586;-43.152;172.732;2023-06-10T06:02:16;13.10;53.60
65826;DHT22;52586;-43.152;172.732;2023-06-10T06:04:48;13.10;53.60
65826;DHT22;52586;-43.152;172.732;2023-06-10T06:07:19;13.00;53.60
65826;DHT22;52586;-43.152;172.732;2023-06-10T06:09:50;13.00;53.60
65826;DHT22;52586;-43.152;172.732;2023-06-10T06:12:20;12.90;53.60
65826;DHT22;52586;-43.152;172.732;2023-06-10T06:14:51;12.90;53.60
65826;DHT22;52586;-43.152;172.732;2023-06-10T06:17:22;12.80;53.70
65826;DHT22;52586;-43.152;172.732;2023-06-10T06:19:54;12.80;54.10
65826;DHT22;52586;-43.152;172.732;2023-06-10T06:22:25;12.70;53.80
65826;DHT22;52586;-43.152;172.732;2023-06-10T06:24:55;12.70;53.80
65826;DHT22;52586;-43.152;172.732;2023-06-10T06:27:26;12.70;54.00
65826;DHT22;52586;-43.152;172.732;2023-06-10T06:29:57;12.60;54.00
65826;DHT22;52586;-43.152;172.732;2023-06-10T06:32:27;12.60;54.10
65826;DHT22;52586;-43.152;172.732;2023-06-10T06:35:00;12.60;54.10
65826;DHT22;52586;-43.152;172.732;2023-06-10T06:37:30;12.50;54.20
65826;DHT22;52586;-43.152;172.732;2023-06-10T06:40:01;12.50;54.30
65826;DHT22;52586;-43.152;172.732;2023-06-10T06:42:32;12.50;54.40
65826;DHT22;52586;-43.152;172.732;2023-06-10T06:45:03;12.40;54.40
65826;DHT22;52586;-43.152;172.732;2023-06-10T06:47:33;12.40;54.50
65826;DHT22;52586;-43.152;172.732;2023-06-10T06:50:06;12.40;54.50
65826;DHT22;52586;-43.152;172.732;2023-06-10T06:52:37;12.40;54.50
65826;DHT22;52586;-43.152;172.732;2023-06-10T06:55:08;12.30;54.50
65826;DHT22;52586;-43.152;172.732;2023-06-10T06:57:38;12.30;54.50
65826;DHT22;52586;-43.152;172.732;2023-06-10T07:00:10;12.30;54.60
65826;DHT22;52586;-43.152;172.732;2023-06-10T07:02:40;12.20;54.60
65826;DHT22;52586;-43.152;172.732;2023-06-10T07:05:13;12.20;54.60
65826;DHT22;52586;-43.152;172.732;2023-06-10T07:07:44;12.20;54.60
65826;DHT22;52586;-43.152;172.732;2023-06-10T07:10:15;12.20;54.60
65826;DHT22;52586;-43.152;172.732;2023-06-10T07:12:46;12.10;54.50
65826;DHT22;52586;-43.152;172.732;2023-06-10T07:15:16;12.10;54.50
65826;DHT22;52586;-43.152;172.732;2023-06-10T07:17:47;12.10;54.60
65826;DHT22;52586;-43.152;172.732;2023-06-10T07:20:20;12.00;54.60
65826;DHT22;52586;-43.152;172.732;2023-06-10T07:22:50;12.00;54.60
65826;DHT22;52586;-43.152;172.732;2023-06-10T07:25:21;12.00;54.60
65826;DHT22;52586;-43.152;172.732;2023-06-10T07:27:52;12.00;54.50
65826;DHT22;52586;-43.152;172.732;2023-06-10T07:30:22;11.90;54.40
65826;DHT22;52586;-43.152;172.732;2023-06-10T07:32:53;11.90;54.30
65826;DHT22;52586;-43.152;172.732;2023-06-10T07:35:26;11.90;54.80
65826;DHT22;52586;-43.152;172.732;2023-06-10T07:37:56;11.80;54.00
65826;DHT22;52586;-43.152;172.732;2023-06-10T07:40:27;11.80;53.90
65826;DHT22;52586;-43.152;172.732;2023-06-10T07:42:57;11.70;53.80
65826;DHT22;52586;-43.152;172.732;2023-06-10T07:45:28;11.70;53.70
65826;DHT22;52586;-43.152;172.732;2023-06-10T07:47:59;11.70;53.60
65826;DHT22;52586;-43.152;172.732;2023-06-10T07:50:31;11.60;53.50
65826;DHT22;52586;-43.152;172.732;2023-06-10T07:53:02;11.60;53.50
65826;DHT22;52586;-43.152;172.732;2023-06-10T07:55:32;11.50;53.40
65826;DHT22;52586;-43.152;172.732;2023-06-10T07:58:03;11.50;53.30
65826;DHT22;52586;-43.152;172.732;2023-06-10T08:00:34;11.40;53.30
65826;DHT22;52586;-43.152;172.732;2023-06-10T08:03:04;11.40;53.40
65826;DHT22;52586;-43.152;172.732;2023-06-10T08:05:37;11.40;53.40
65826;DHT22;52586;-43.152;172.732;2023-06-10T08:08:09;11.40;53.50
65826;DHT22;52586;-43.152;172.732;2023-06-10T08:10:40;11.30;53.70
65826;DHT22;52586;-43.152;172.732;2023-06-10T08:13:10;11.30;53.70
65826;DHT22;52586;-43.152;172.732;2023-06-10T08:15:41;11.30;53.70
65826;DHT22;52586;-43.152;172.732;2023-06-10T08:18:12;11.30;53.80
65826;DHT22;52586;-43.152;172.732;2023-06-10T08:20:44;11.20;53.80
65826;DHT22;52586;-43.152;172.732;2023-06-10T08:23:18;11.20;53.80
65826;DHT22;52586;-43.152;172.732;2023-06-10T08:25:49;11.20;53.70
65826;DHT22;52586;-43.152;172.732;2023-06-10T08:28:20;11.20;53.70
65826;DHT22;52586;-43.152;172.732;2023-06-10T08:30:50;11.20;53.70
65826;DHT22;52586;-43.152;172.732;2023-06-10T08:33:21;11.20;53.80
65826;DHT22;52586;-43.152;172.732;2023-06-10T08:35:53;11.20;53.80
65826;DHT22;52586;-43.152;172.732;2023-06-10T08:38:24;11.10;53.90
65826;DHT22;52586;-43.152;172.732;2023-06-10T08:40:58;11.10;54.10
65826;DHT22;52586;-43.152;172.732;2023-06-10T08:43:34;11.10;54.30
65826;DHT22;52586;-43.152;172.732;2023-06-10T08:46:08;11.00;54.40
65826;DHT22;52586;-43.152;172.732;2023-06-10T08:48:42;11.00;54.60
65826;DHT22;52586;-43.152;172.732;2023-06-10T08:51:16;11.00;54.70
65826;DHT22;52586;-43.152;172.732;2023-06-10T08:53:53;11.00;54.90
65826;DHT22;52586;-43.152;172.732;2023-06-10T08:56:24;11.00;55.00
65826;DHT22;52586;-43.152;172.732;2023-06-10T08:58:57;11.00;55.20
65826;DHT22;52586;-43.152;172.732;2023-06-10T09:01:29;11.00;55.30
65826;DHT22;52586;-43.152;172.732;2023-06-10T09:04:00;11.00;55.40
65826;DHT22;52586;-43.152;172.732;2023-06-10T09:06:34;10.90;55.40
65826;DHT22;52586;-43.152;172.732;2023-06-10T09:09:06;10.90;55.50
65826;DHT22;52586;-43.152;172.732;2023-06-10T09:11:38;10.90;55.50
65826;DHT22;52586;-43.152;172.732;2023-06-10T09:14:08;10.90;55.60
65826;DHT22;52586;-43.152;172.732;2023-06-10T09:16:39;10.90;55.80
65826;DHT22;52586;-43.152;172.732;2023-06-10T09:19:12;10.90;55.90
65826;DHT22;52586;-43.152;172.732;2023-06-10T09:21:45;11.00;55.90
65826;DHT22;52586;-43.152;172.732;2023-06-10T09:24:16;11.00;55.90
65826;DHT22;52586;-43.152;172.732;2023-06-10T09:26:46;11.00;55.90
65826;DHT22;52586;-43.152;172.732;2023-06-10T09:29:18;11.10;55.90
65826;DHT22;52586;-43.152;172.732;2023-06-10T09:31:49;11.10;55.90
65826;DHT22;52586;-43.152;172.732;2023-06-10T09:34:24;11.10;55.80
65826;DHT22;52586;-43.152;172.732;2023-06-10T09:36:57;11.20;55.90
65826;DHT22;52586;-43.152;172.732;2023-06-10T09:39:28;11.20;55.90
65826;DHT22;52586;-43.152;172.732;2023-06-10T09:41:59;11.20;55.80
65826;DHT22;52586;-43.152;172.732;2023-06-10T09:44:30;11.30;55.80
65826;DHT22;52586;-43.152;172.732;2023-06-10T09:47:00;11.30;55.70
65826;DHT22;52586;-43.152;172.732;2023-06-10T09:49:31;11.30;55.70
65826;DHT22;52586;-43.152;172.732;2023-06-10T09:52:06;11.30;55.70
65826;DHT22;52586;-43.152;172.732;2023-06-10T09:54:37;11.40;55.70
65826;DHT22;52586;-43.152;172.732;2023-06-10T09:57:09;11.40;55.60
65826;DHT22;52586;-43.152;172.732;2023-06-10T09:59:41;11.40;55.60
65826;DHT22;52586;-43.152;172.732;2023-06-10T10:02:15;11.40;55.60
65826;DHT22;52586;-43.152;172.732;2023-06-10T10:04:46;11.40;55.60
65826;DHT22;52586;-43.152;172.732;2023-06-10T10:07:19;11.50;55.60
65826;DHT22;52586;-43.152;172.732;2023-06-10T10:09:50;11.50;55.50
65826;DHT22;52586;-43.152;172.732;2023-06-10T10:12:21;11.50;55.50
65826;DHT22;52586;-43.152;172.732;2023-06-10T10:14:53;11.50;55.50
65826;DHT22;52586;-43.152;172.732;2023-06-10T10:17:26;11.50;55.50
65826;DHT22;52586;-43.152;172.732;2023-06-10T10:20:00;11.50;55.50
65826;DHT22;52586;-43.152;172.732;2023-06-10T10:22:37;11.50;55.50
65826;DHT22;52586;-43.152;172.732;2023-06-10T10:25:12;11.50;55.50
65826;DHT22;52586;-43.152;172.732;2023-06-10T10:27:47;11.50;55.40
65826;DHT22;52586;-43.152;172.732;2023-06-10T10:30:21;11.50;55.40
65826;DHT22;52586;-43.152;172.732;2023-06-10T10:32:57;11.50;55.30
65826;DHT22;52586;-43.152;172.732;2023-06-10T10:35:29;11.50;55.30
65826;DHT22;52586;-43.152;172.732;2023-06-10T10:38:03;11.60;55.40
65826;DHT22;52586;-43.152;172.732;2023-06-10T10:40:35;11.60;55.40
65826;DHT22;52586;-43.152;172.732;2023-06-10T10:43:07;11.50;55.30
65826;DHT22;52586;-43.152;172.732;2023-06-10T10:45:38;11.60;55.40
65826;DHT22;52586;-43.152;172.732;2023-06-10T10:48:10;11.50;55.30
65826;DHT22;52586;-43.152;172.732;2023-06-10T10:50:41;11.50;55.30
65826;DHT22;52586;-43.152;172.732;2023-06-10T10:53:21;11.50;55.30
65826;DHT22;52586;-43.152;172.732;2023-06-10T10:55:59;11.50;55.30
65826;DHT22;52586;-43.152;172.732;2023-06-10T10:58:34;11.50;55.30
65826;DHT22;52586;-43.152;172.732;2023-06-10T11:01:15;11.50;55.30
65826;DHT22;52586;-43.152;172.732;2023-06-10T11:03:46;11.50;55.30
65826;DHT22;52586;-43.152;172.732;2023-06-10T11:06:17;11.50;55.30
65826;DHT22;52586;-43.152;172.732;2023-06-10T11:08:50;11.60;55.40
65826;DHT22;52586;-43.152;172.732;2023-06-10T11:11:23;11.50;55.30
65826;DHT22;52586;-43.152;172.732;2023-06-10T11:14:06;11.50;55.30
65826;DHT22;52586;-43.152;172.732;2023-06-10T11:16:42;11.50;55.30
65826;DHT22;52586;-43.152;172.732;2023-06-10T11:19:32;11.50;55.30
65826;DHT22;52586;-43.152;172.732;2023-06-10T11:22:05;11.50;55.30
65826;DHT22;52586;-43.152;172.732;2023-06-10T11:24:38;11.50;55.30
65826;DHT22;52586;-43.152;172.732;2023-06-10T11:27:19;11.50;55.30
65826;DHT22;52586;-43.152;172.732;2023-06-10T11:30:17;11.50;55.30
65826;DHT22;52586;-43.152;172.732;2023-06-10T11:32:51;11.50;55.30
65826;DHT22;52586;-43.152;172.732;2023-06-10T11:35:25;11.50;55.30
65826;DHT22;52586;-43.152;172.732;2023-06-10T11:37:57;11.50;55.30
65826;DHT22;52586;-43.152;172.732;2023-06-10T11:40:30;11.50;55.30
65826;DHT22;52586;-43.152;172.732;2023-06-10T11:43:03;11.50;55.30
65826;DHT22;52586;-43.152;172.732;2023-06-10T11:45:34;11.40;55.30
65826;DHT22;52586;-43.152;172.732;2023-06-10T11:48:05;11.50;55.30
65826;DHT22;52586;-43.152;172.732;2023-06-10T11:50:36;11.50;55.30
65826;DHT22;52586;-43.152;172.732;2023-06-10T11:53:09;11.50;55.30
65826;DHT22;52586;-43.152;172.732;2023-06-10T11:55:49;11.50;55.30
65826;DHT22;52586;-43.152;172.732;2023-06-10T11:58:21;11.50;55.30
65826;DHT22;52586;-43.152;172.732;2023-06-10T12:00:53;11.50;55.30
65826;DHT22;52586;-43.152;172.732;2023-06-10T12:03:26;11.50;55.30
65826;DHT22;52586;-43.152;172.732;2023-06-10T12:05:57;11.50;55.30
65826;DHT22;52586;-43.152;172.732;2023-06-10T12:08:28;11.50;55.30
65826;DHT22;52586;-43.152;172.732;2023-06-10T12:11:01;11.40;55.30
65826;DHT22;52586;-43.152;172.732;2023-06-10T12:13:32;11.50;55.30
65826;DHT22;52586;-43.152;172.732;2023-06-10T12:16:09;11.40;55.30
65826;DHT22;52586;-43.152;172.732;2023-06-10T12:18:40;11.40;55.30
65826;DHT22;52586;-43.152;172.732;2023-06-10T12:21:23;11.40;55.30
65826;DHT22;52586;-43.152;172.732;2023-06-10T12:24:05;11.50;55.30
65826;DHT22;52586;-43.152;172.732;2023-06-10T12:26:42;11.40;55.30
65826;DHT22;52586;-43.152;172.732;2023-06-10T12:29:20;11.40;55.30
65826;DHT22;52586;-43.152;172.732;2023-06-10T12:31:56;11.40;55.30
65826;DHT22;52586;-43.152;172.732;2023-06-10T12:34:35;11.40;55.30
65826;DHT22;52586;-43.152;172.732;2023-06-10T12:37:09;11.40;55.30
65826;DHT22;52586;-43.152;172.732;2023-06-10T12:39:41;11.40;55.30
65826;DHT22;52586;-43.152;172.732;2023-06-10T12:42:14;11.40;55.30
65826;DHT22;52586;-43.152;172.732;2023-06-10T12:44:45;11.40;55.30
65826;DHT22;52586;-43.152;172.732;2023-06-10T12:47:15;11.40;55.30
65826;DHT22;52586;-43.152;172.732;2023-06-10T12:49:46;11.40;55.30
65826;DHT22;52586;-43.152;172.732;2023-06-10T12:52:18;11.40;55.30
65826;DHT22;52586;-43.152;172.732;2023-06-10T12:54:48;11.40;55.30
65826;DHT22;52586;-43.152;172.732;2023-06-10T12:57:21;11.40;55.40
65826;DHT22;52586;-43.152;172.732;2023-06-10T12:59:52;11.40;55.40
65826;DHT22;52586;-43.152;172.732;2023-06-10T13:02:25;11.40;55.40
65826;DHT22;52586;-43.152;172.732;2023-06-10T13:04:55;11.40;55.40
65826;DHT22;52586;-43.152;172.732;2023-06-10T13:07:26;11.40;55.40
65826;DHT22;52586;-43.152;172.732;2023-06-10T13:09:58;11.40;55.40
65826;DHT22;52586;-43.152;172.732;2023-06-10T13:12:31;11.40;55.40
65826;DHT22;52586;-43.152;172.732;2023-06-10T13:15:01;11.40;55.40
65826;DHT22;52586;-43.152;172.732;2023-06-10T13:17:32;11.40;55.40
65826;DHT22;52586;-43.152;172.732;2023-06-10T13:20:04;11.40;55.40
65826;DHT22;52586;-43.152;172.732;2023-06-10T13:22:35;11.40;55.40
65826;DHT22;52586;-43.152;172.732;2023-06-10T13:25:06;11.40;55.40
65826;DHT22;52586;-43.152;172.732;2023-06-10T13:27:39;11.40;55.40
65826;DHT22;52586;-43.152;172.732;2023-06-10T13:30:11;11.40;55.40
65826;DHT22;52586;-43.152;172.732;2023-06-10T13:32:41;11.40;55.40
65826;DHT22;52586;-43.152;172.732;2023-06-10T13:35:12;11.40;55.40
65826;DHT22;52586;-43.152;172.732;2023-06-10T13:37:43;11.40;55.40
65826;DHT22;52586;-43.152;172.732;2023-06-10T13:40:13;11.40;55.40
65826;DHT22;52586;-43.152;172.732;2023-06-10T13:42:46;11.40;55.50
65826;DHT22;52586;-43.152;172.732;2023-06-10T13:45:18;11.40;55.50
65826;DHT22;52586;-43.152;172.732;2023-06-10T13:47:49;11.40;55.50
65826;DHT22;52586;-43.152;172.732;2023-06-10T13:50:19;11.40;55.50
65826;DHT22;52586;-43.152;172.732;2023-06-10T13:52:50;11.40;55.50
65826;DHT22;52586;-43.152;172.732;2023-06-10T13:55:20;11.40;55.40
65826;DHT22;52586;-43.152;172.732;2023-06-10T13:57:54;11.40;55.40
65826;DHT22;52586;-43.152;172.732;2023-06-10T14:00:24;11.30;55.40
65826;DHT22;52586;-43.152;172.732;2023-06-10T14:02:55;11.30;55.40
65826;DHT22;52586;-43.152;172.732;2023-06-10T14:05:26;11.30;55.40
65826;DHT22;52586;-43.152;172.732;2023-06-10T14:07:56;11.30;55.40
65826;DHT22;52586;-43.152;172.732;2023-06-10T14:10:27;11.30;55.40
65826;DHT22;52586;-43.152;172.732;2023-06-10T14:13:00;11.30;55.40
65826;DHT22;52586;-43.152;172.732;2023-06-10T14:15:30;11.30;55.50
65826;DHT22;52586;-43.152;172.732;2023-06-10T14:18:01;11.30;55.40
65826;DHT22;52586;-43.152;172.732;2023-06-10T14:20:31;11.30;55.50
65826;DHT22;52586;-43.152;172.732;2023-06-10T14:23:02;11.30;55.40
65826;DHT22;52586;-43.152;172.732;2023-06-10T14:25:33;11.30;55.50
65826;DHT22;52586;-43.152;172.732;2023-06-10T14:28:06;11.30;55.50
65826;DHT22;52586;-43.152;172.732;2023-06-10T14:30:36;11.30;55.50
65826;DHT22;52586;-43.152;172.732;2023-06-10T14:33:07;11.30;55.50
65826;DHT22;52586;-43.152;172.732;2023-06-10T14:35:37;11.30;55.50
65826;DHT22;52586;-43.152;172.732;2023-06-10T14:38:08;11.30;55.50
65826;DHT22;52586;-43.152;172.732;2023-06-10T14:40:39;11.30;55.40
65826;DHT22;52586;-43.152;172.732;2023-06-10T14:43:11;11.30;55.50
65826;DHT22;52586;-43.152;172.732;2023-06-10T14:45:42;11.30;55.40
65826;DHT22;52586;-43.152;172.732;2023-06-10T14:48:13;11.30;55.40
65826;DHT22;52586;-43.152;172.732;2023-06-10T14:50:43;11.30;55.40
65826;DHT22;52586;-43.152;172.732;2023-06-10T14:53:18;11.30;55.40
65826;DHT22;52586;-43.152;172.732;2023-06-10T14:55:49;11.30;55.40
65826;DHT22;52586;-43.152;172.732;2023-06-10T14:58:21;11.30;55.40
65826;DHT22;52586;-43.152;172.732;2023-06-10T15:00:52;11.30;55.40
65826;DHT22;52586;-43.152;172.732;2023-06-10T15:03:22;11.20;55.30
65826;DHT22;52586;-43.152;172.732;2023-06-10T15:05:53;11.20;55.30
65826;DHT22;52586;-43.152;172.732;2023-06-10T15:08:24;11.20;55.40
65826;DHT22;52586;-43.152;172.732;2023-06-10T15:10:55;11.20;55.30
65826;DHT22;52586;-43.152;172.732;2023-06-10T15:13:30;11.20;55.40
65826;DHT22;52586;-43.152;172.732;2023-06-10T15:16:01;11.20;55.30
65826;DHT22;52586;-43.152;172.732;2023-06-10T15:18:31;11.20;55.40
65826;DHT22;52586;-43.152;172.732;2023-06-10T15:21:02;11.20;55.40
65826;DHT22;52586;-43.152;172.732;2023-06-10T15:23:33;11.20;55.40
65826;DHT22;52586;-43.152;172.732;2023-06-10T15:26:04;11.20;55.30
65826;DHT22;52586;-43.152;172.732;2023-06-10T15:28:36;11.20;55.30
65826;DHT22;52586;-43.152;172.732;2023-06-10T15:31:07;11.20;55.30
65826;DHT22;52586;-43.152;172.732;2023-06-10T15:33:37;11.20;55.30
65826;DHT22;52586;-43.152;172.732;2023-06-10T15:36:08;11.20;55.30
65826;DHT22;52586;-43.152;172.732;2023-06-10T15:38:41;11.20;55.40
65826;DHT22;52586;-43.152;172.732;2023-06-10T15:41:11;11.20;55.30
65826;DHT22;52586;-43.152;172.732;2023-06-10T15:43:44;11.20;55.30
65826;DHT22;52586;-43.152;172.732;2023-06-10T15:46:14;11.10;55.30
65826;DHT22;52586;-43.152;172.732;2023-06-10T15:48:45;11.10;55.30
65826;DHT22;52586;-43.152;172.732;2023-06-10T15:51:16;11.10;55.30
65826;DHT22;52586;-43.152;172.732;2023-06-10T15:53:46;11.10;55.30
65826;DHT22;52586;-43.152;172.732;2023-06-10T15:56:18;11.10;55.30
65826;DHT22;52586;-43.152;172.732;2023-06-10T15:58:50;11.10;55.30
65826;DHT22;52586;-43.152;172.732;2023-06-10T16:01:21;11.10;55.30
65826;DHT22;52586;-43.152;172.732;2023-06-10T16:03:51;11.10;55.30
65826;DHT22;52586;-43.152;172.732;2023-06-10T16:06:22;11.10;55.30
65826;DHT22;52586;-43.152;172.732;2023-06-10T16:08:53;11.10;55.30
65826;DHT22;52586;-43.152;172.732;2023-06-10T16:11:24;11.10;55.30
65826;DHT22;52586;-43.152;172.732;2023-06-10T16:13:57;11.10;55.30
65826;DHT22;52586;-43.152;172.732;2023-06-10T16:16:27;11.10;55.30